sensor_id;sensor_type;location;lat;lon;timestamp;pressure;altitude;pressure_sealevel;temperature
68911;BMP180;55953;51.650;-0.522;2023-04-24T00:00:48;99679.00;;;8.70
68911;BMP180;55953;51.650;-0.522;2023-04-24T00:03:24;99684.20;;;8.70
68911;BMP180;55953;51.650;-0.522;2023-04-24T00:05:52;99689.40;;;8.70
68911;BMP180;55953;51.650;-0.522;2023-04-24T00:08:20;99691.60;;;8.70
68911;BMP180;55953;51.650;-0.522;2023-04-24T00:10:50;99697.60;;;8.70
68911;BMP180;55953;51.650;-0.522;2023-04-24T00:13:19;99698.60;;;8.70
68911;BMP180;55953;51.650;-0.522;2023-04-24T00:15:47;99698.20;;;8.66
68911;BMP180;55953;51.650;-0.522;2023-04-24T00:18:15;99702.60;;;8.70
68911;BMP180;55953;51.650;-0.522;2023-04-24T00:20:43;99702.20;;;8.70
68911;BMP180;55953;51.650;-0.522;2023-04-24T00:23:12;99705.20;;;8.70
68911;BMP180;55953;51.650;-0.522;2023-04-24T00:25:40;99710.60;;;8.70
68911;BMP180;55953;51.650;-0.522;2023-04-24T00:28:08;99711.40;;;8.70
68911;BMP180;55953;51.650;-0.522;2023-04-24T00:30:35;99718.80;;;8.70
68911;BMP180;55953;51.650;-0.522;2023-04-24T00:33:03;99723.00;;;8.74
68911;BMP180;55953;51.650;-0.522;2023-04-24T00:35:31;99725.40;;;8.72
68911;BMP180;55953;51.650;-0.522;2023-04-24T00:37:59;99725.20;;;8.76
68911;BMP180;55953;51.650;-0.522;2023-04-24T00:40:28;99724.20;;;8.80
68911;BMP180;55953;51.650;-0.522;2023-04-24T00:42:56;99723.20;;;8.80
68911;BMP180;55953;51.650;-0.522;2023-04-24T00:45:24;99722.00;;;8.80
68911;BMP180;55953;51.650;-0.522;2023-04-24T00:47:53;99727.80;;;8.80
68911;BMP180;55953;51.650;-0.522;2023-04-24T00:50:21;99728.00;;;8.80
68911;BMP180;55953;51.650;-0.522;2023-04-24T00:52:50;99734.40;;;8.80
68911;BMP180;55953;51.650;-0.522;2023-04-24T00:55:19;99727.80;;;8.70
68911;BMP180;55953;51.650;-0.522;2023-04-24T00:57:48;99736.60;;;8.64
68911;BMP180;55953;51.650;-0.522;2023-04-24T01:00:17;99742.20;;;8.60
68911;BMP180;55953;51.650;-0.522;2023-04-24T01:02:45;99744.80;;;8.60
68911;BMP180;55953;51.650;-0.522;2023-04-24T01:05:15;99750.40;;;8.50
68911;BMP180;55953;51.650;-0.522;2023-04-24T01:07:46;99749.40;;;8.50
68911;BMP180;55953;51.650;-0.522;2023-04-24T01:10:16;99750.40;;;8.40
68911;BMP180;55953;51.650;-0.522;2023-04-24T01:12:46;99750.40;;;8.40
68911;BMP180;55953;51.650;-0.522;2023-04-24T01:15:14;99749.60;;;8.40
68911;BMP180;55953;51.650;-0.522;2023-04-24T01:17:42;99749.00;;;8.34
68911;BMP180;55953;51.650;-0.522;2023-04-24T01:20:10;99748.80;;;8.34
68911;BMP180;55953;51.650;-0.522;2023-04-24T01:22:38;99755.00;;;8.30
68911;BMP180;55953;51.650;-0.522;2023-04-24T01:25:06;99751.80;;;8.30
68911;BMP180;55953;51.650;-0.522;2023-04-24T01:27:34;99750.60;;;8.30
68911;BMP180;55953;51.650;-0.522;2023-04-24T01:30:03;99751.00;;;8.30
68911;BMP180;55953;51.650;-0.522;2023-04-24T01:32:31;99753.80;;;8.30
68911;BMP180;55953;51.650;-0.522;2023-04-24T01:34:59;99750.20;;;8.30
68911;BMP180;55953;51.650;-0.522;2023-04-24T01:37:27;99745.80;;;8.20
68911;BMP180;55953;51.650;-0.522;2023-04-24T01:39:56;99754.20;;;8.20
68911;BMP180;55953;51.650;-0.522;2023-04-24T01:42:26;99750.20;;;8.10
68911;BMP180;55953;51.650;-0.522;2023-04-24T01:44:54;99749.60;;;8.08
68911;BMP180;55953;51.650;-0.522;2023-04-24T01:47:23;99755.60;;;8.00
68911;BMP180;55953;51.650;-0.522;2023-04-24T01:49:51;99758.20;;;8.00
68911;BMP180;55953;51.650;-0.522;2023-04-24T01:52:20;99755.20;;;7.90
68911;BMP180;55953;51.650;-0.522;2023-04-24T01:54:47;99758.00;;;7.90
68911;BMP180;55953;51.650;-0.522;2023-04-24T01:57:17;99764.60;;;7.80
68911;BMP180;55953;51.650;-0.522;2023-04-24T01:59:45;99763.20;;;7.70
68911;BMP180;55953;51.650;-0.522;2023-04-24T02:02:13;99758.20;;;7.70
68911;BMP180;55953;51.650;-0.522;2023-04-24T02:04:41;99759.20;;;7.64
68911;BMP180;55953;51.650;-0.522;2023-04-24T02:07:09;99758.40;;;7.60
68911;BMP180;55953;51.650;-0.522;2023-04-24T02:09:37;99767.80;;;7.60
68911;BMP180;55953;51.650;-0.522;2023-04-24T02:12:05;99765.60;;;7.50
68911;BMP180;55953;51.650;-0.522;2023-04-24T02:14:33;99760.00;;;7.50
68911;BMP180;55953;51.650;-0.522;2023-04-24T02:17:01;99767.00;;;7.50
68911;BMP180;55953;51.650;-0.522;2023-04-24T02:19:29;99771.80;;;7.50
68911;BMP180;55953;51.650;-0.522;2023-04-24T02:21:56;99777.80;;;7.40
68911;BMP180;55953;51.650;-0.522;2023-04-24T02:24:25;99774.20;;;7.40
68911;BMP180;55953;51.650;-0.522;2023-04-24T02:26:53;99771.20;;;7.40
68911;BMP180;55953;51.650;-0.522;2023-04-24T02:29:20;99774.20;;;7.40
68911;BMP180;55953;51.650;-0.522;2023-04-24T02:31:49;99779.60;;;7.40
68911;BMP180;55953;51.650;-0.522;2023-04-24T02:34:17;99785.20;;;7.50
68911;BMP180;55953;51.650;-0.522;2023-04-24T02:36:45;99792.00;;;7.50
68911;BMP180;55953;51.650;-0.522;2023-04-24T02:39:15;99794.20;;;7.60
68911;BMP180;55953;51.650;-0.522;2023-04-24T02:41:46;99801.20;;;7.70
68911;BMP180;55953;51.650;-0.522;2023-04-24T02:44:15;99805.00;;;7.72
68911;BMP180;55953;51.650;-0.522;2023-04-24T02:46:44;99805.60;;;7.80
68911;BMP180;55953;51.650;-0.522;2023-04-24T02:49:12;99804.00;;;7.80
68911;BMP180;55953;51.650;-0.522;2023-04-24T02:51:40;99806.80;;;7.90
68911;BMP180;55953;51.650;-0.522;2023-04-24T02:54:09;99810.40;;;7.92
68911;BMP180;55953;51.650;-0.522;2023-04-24T02:56:37;99819.00;;;8.00
68911;BMP180;55953;51.650;-0.522;2023-04-24T02:59:06;99827.20;;;8.00
68911;BMP180;55953;51.650;-0.522;2023-04-24T03:01:33;99827.80;;;8.00
68911;BMP180;55953;51.650;-0.522;2023-04-24T03:04:02;99823.80;;;8.00
68911;BMP180;55953;51.650;-0.522;2023-04-24T03:06:34;99824.00;;;8.00
68911;BMP180;55953;51.650;-0.522;2023-04-24T03:09:03;99825.20;;;8.10
68911;BMP180;55953;51.650;-0.522;2023-04-24T03:11:32;99833.40;;;8.10
68911;BMP180;55953;51.650;-0.522;2023-04-24T03:14:00;99840.40;;;8.02
68911;BMP180;55953;51.650;-0.522;2023-04-24T03:16:28;99843.40;;;8.04
68911;BMP180;55953;51.650;-0.522;2023-04-24T03:18:56;99848.20;;;8.10
68911;BMP180;55953;51.650;-0.522;2023-04-24T03:21:25;99852.00;;;8.06
68911;BMP180;55953;51.650;-0.522;2023-04-24T03:23:54;99852.00;;;8.08
68911;BMP180;55953;51.650;-0.522;2023-04-24T03:26:22;99856.80;;;8.10
68911;BMP180;55953;51.650;-0.522;2023-04-24T03:29:00;99852.00;;;8.10
68911;BMP180;55953;51.650;-0.522;2023-04-24T03:31:28;99858.20;;;8.10
68911;BMP180;55953;51.650;-0.522;2023-04-24T03:33:57;99856.40;;;8.14
68911;BMP180;55953;51.650;-0.522;2023-04-24T03:36:25;99862.40;;;8.18
68911;BMP180;55953;51.650;-0.522;2023-04-24T03:38:54;99865.00;;;8.20
68911;BMP180;55953;51.650;-0.522;2023-04-24T03:41:26;99867.00;;;8.20
68911;BMP180;55953;51.650;-0.522;2023-04-24T03:43:59;99864.60;;;8.20
68911;BMP180;55953;51.650;-0.522;2023-04-24T03:46:27;99862.80;;;8.20
68911;BMP180;55953;51.650;-0.522;2023-04-24T03:48:57;99862.00;;;8.20
68911;BMP180;55953;51.650;-0.522;2023-04-24T03:51:29;99860.20;;;8.20
68911;BMP180;55953;51.650;-0.522;2023-04-24T03:54:04;99864.60;;;8.20
68911;BMP180;55953;51.650;-0.522;2023-04-24T03:56:37;99865.00;;;8.20
68911;BMP180;55953;51.650;-0.522;2023-04-24T03:59:06;99870.80;;;8.20
68911;BMP180;55953;51.650;-0.522;2023-04-24T04:01:35;99877.40;;;8.20
68911;BMP180;55953;51.650;-0.522;2023-04-24T04:04:16;99884.80;;;8.20
68911;BMP180;55953;51.650;-0.522;2023-04-24T04:06:45;99891.20;;;8.20
68911;BMP180;55953;51.650;-0.522;2023-04-24T04:09:15;99896.20;;;8.20
68911;BMP180;55953;51.650;-0.522;2023-04-24T04:11:43;99892.80;;;8.20
68911;BMP180;55953;51.650;-0.522;2023-04-24T04:14:12;99897.80;;;8.20
68911;BMP180;55953;51.650;-0.522;2023-04-24T04:16:41;99900.60;;;8.20
68911;BMP180;55953;51.650;-0.522;2023-04-24T04:19:10;99897.60;;;8.20
68911;BMP180;55953;51.650;-0.522;2023-04-24T04:21:38;99903.00;;;8.20
68911;BMP180;55953;51.650;-0.522;2023-04-24T04:24:14;99906.00;;;8.24
68911;BMP180;55953;51.650;-0.522;2023-04-24T04:26:44;99914.00;;;8.24
68911;BMP180;55953;51.650;-0.522;2023-04-24T04:29:23;99918.20;;;8.26
68911;BMP180;55953;51.650;-0.522;2023-04-24T04:31:51;99920.20;;;8.24
68911;BMP180;55953;51.650;-0.522;2023-04-24T04:34:21;99920.60;;;8.26
68911;BMP180;55953;51.650;-0.522;2023-04-24T04:36:50;99923.20;;;8.30
68911;BMP180;55953;51.650;-0.522;2023-04-24T04:39:31;99920.00;;;8.30
68911;BMP180;55953;51.650;-0.522;2023-04-24T04:42:05;99926.80;;;8.24
68911;BMP180;55953;51.650;-0.522;2023-04-24T04:44:40;99929.60;;;8.20
68911;BMP180;55953;51.650;-0.522;2023-04-24T04:47:10;99936.40;;;8.20
68911;BMP180;55953;51.650;-0.522;2023-04-24T04:49:38;99934.60;;;8.20
68911;BMP180;55953;51.650;-0.522;2023-04-24T04:52:10;99943.00;;;8.10
68911;BMP180;55953;51.650;-0.522;2023-04-24T04:54:38;99941.20;;;8.10
68911;BMP180;55953;51.650;-0.522;2023-04-24T04:57:06;99950.60;;;8.00
68911;BMP180;55953;51.650;-0.522;2023-04-24T04:59:34;99955.20;;;8.00
68911;BMP180;55953;51.650;-0.522;2023-04-24T05:02:05;99957.20;;;8.00
68911;BMP180;55953;51.650;-0.522;2023-04-24T05:04:33;99959.60;;;8.00
68911;BMP180;55953;51.650;-0.522;2023-04-24T05:07:02;99969.60;;;7.90
68911;BMP180;55953;51.650;-0.522;2023-04-24T05:09:32;99976.60;;;7.90
68911;BMP180;55953;51.650;-0.522;2023-04-24T05:12:04;99983.40;;;7.88
68911;BMP180;55953;51.650;-0.522;2023-04-24T05:14:36;99984.00;;;7.80
68911;BMP180;55953;51.650;-0.522;2023-04-24T05:17:04;99990.20;;;7.80
68911;BMP180;55953;51.650;-0.522;2023-04-24T05:19:32;99984.40;;;7.70
68911;BMP180;55953;51.650;-0.522;2023-04-24T05:22:04;99989.60;;;7.70
68911;BMP180;55953;51.650;-0.522;2023-04-24T05:24:36;99998.00;;;7.60
68911;BMP180;55953;51.650;-0.522;2023-04-24T05:27:13;99996.60;;;7.60
68911;BMP180;55953;51.650;-0.522;2023-04-24T05:29:41;99996.80;;;7.56
68911;BMP180;55953;51.650;-0.522;2023-04-24T05:32:10;100000.60;;;7.52
68911;BMP180;55953;51.650;-0.522;2023-04-24T05:34:38;99996.40;;;7.60
68911;BMP180;55953;51.650;-0.522;2023-04-24T05:37:07;99994.20;;;7.58
68911;BMP180;55953;51.650;-0.522;2023-04-24T05:39:37;100002.40;;;7.50
68911;BMP180;55953;51.650;-0.522;2023-04-24T05:42:05;100002.60;;;7.50
68911;BMP180;55953;51.650;-0.522;2023-04-24T05:44:33;100003.80;;;7.50
68911;BMP180;55953;51.650;-0.522;2023-04-24T05:47:02;99998.80;;;7.50
68911;BMP180;55953;51.650;-0.522;2023-04-24T05:49:30;100001.80;;;7.50
68911;BMP180;55953;51.650;-0.522;2023-04-24T05:51:58;100001.40;;;7.60
68911;BMP180;55953;51.650;-0.522;2023-04-24T05:54:26;99987.40;;;7.60
68911;BMP180;55953;51.650;-0.522;2023-04-24T05:56:56;99997.00;;;7.60
68911;BMP180;55953;51.650;-0.522;2023-04-24T05:59:37;99998.00;;;7.50
68911;BMP180;55953;51.650;-0.522;2023-04-24T06:02:10;100002.00;;;7.50
68911;BMP180;55953;51.650;-0.522;2023-04-24T06:04:38;100009.40;;;7.46
68911;BMP180;55953;51.650;-0.522;2023-04-24T06:07:07;100007.80;;;7.50
68911;BMP180;55953;51.650;-0.522;2023-04-24T06:09:35;100008.40;;;7.52
68911;BMP180;55953;51.650;-0.522;2023-04-24T06:12:04;100016.20;;;7.70
68911;BMP180;55953;51.650;-0.522;2023-04-24T06:14:44;100020.20;;;7.70
68911;BMP180;55953;51.650;-0.522;2023-04-24T06:17:19;100013.20;;;7.86
68911;BMP180;55953;51.650;-0.522;2023-04-24T06:19:47;100019.20;;;8.10
68911;BMP180;55953;51.650;-0.522;2023-04-24T06:22:16;100018.20;;;8.20
68911;BMP180;55953;51.650;-0.522;2023-04-24T06:24:43;100021.60;;;8.40
68911;BMP180;55953;51.650;-0.522;2023-04-24T06:27:12;100018.00;;;8.50
68911;BMP180;55953;51.650;-0.522;2023-04-24T06:29:42;100018.00;;;8.70
68911;BMP180;55953;51.650;-0.522;2023-04-24T06:32:10;100022.40;;;8.74
68911;BMP180;55953;51.650;-0.522;2023-04-24T06:34:38;100018.40;;;8.70
68911;BMP180;55953;51.650;-0.522;2023-04-24T06:37:06;100024.60;;;8.88
68911;BMP180;55953;51.650;-0.522;2023-04-24T06:39:34;100032.20;;;8.90
68911;BMP180;55953;51.650;-0.522;2023-04-24T06:42:02;100030.40;;;8.98
68911;BMP180;55953;51.650;-0.522;2023-04-24T06:44:34;100033.40;;;9.16
68911;BMP180;55953;51.650;-0.522;2023-04-24T06:47:10;100024.60;;;9.30
68911;BMP180;55953;51.650;-0.522;2023-04-24T06:49:38;100025.40;;;9.82
68911;BMP180;55953;51.650;-0.522;2023-04-24T06:52:06;100023.40;;;10.18
68911;BMP180;55953;51.650;-0.522;2023-04-24T06:54:34;100013.80;;;10.42
68911;BMP180;55953;51.650;-0.522;2023-04-24T06:57:02;100024.60;;;10.60
68911;BMP180;55953;51.650;-0.522;2023-04-24T06:59:30;100025.00;;;10.60
68911;BMP180;55953;51.650;-0.522;2023-04-24T07:01:58;100025.60;;;10.50
68911;BMP180;55953;51.650;-0.522;2023-04-24T07:04:27;100029.60;;;10.50
68911;BMP180;55953;51.650;-0.522;2023-04-24T07:06:56;100040.00;;;10.30
68911;BMP180;55953;51.650;-0.522;2023-04-24T07:09:25;100039.00;;;10.20
68911;BMP180;55953;51.650;-0.522;2023-04-24T07:11:54;100039.40;;;10.08
68911;BMP180;55953;51.650;-0.522;2023-04-24T07:14:23;100040.00;;;9.92
68911;BMP180;55953;51.650;-0.522;2023-04-24T07:16:51;100045.00;;;9.90
68911;BMP180;55953;51.650;-0.522;2023-04-24T07:19:19;100046.40;;;9.90
68911;BMP180;55953;51.650;-0.522;2023-04-24T07:21:47;100046.00;;;9.80
68911;BMP180;55953;51.650;-0.522;2023-04-24T07:24:15;100051.20;;;9.88
68911;BMP180;55953;51.650;-0.522;2023-04-24T07:26:43;100052.00;;;9.90
68911;BMP180;55953;51.650;-0.522;2023-04-24T07:29:11;100054.20;;;9.70
68911;BMP180;55953;51.650;-0.522;2023-04-24T07:31:39;100057.40;;;9.68
68911;BMP180;55953;51.650;-0.522;2023-04-24T07:34:08;100057.40;;;9.50
68911;BMP180;55953;51.650;-0.522;2023-04-24T07:36:36;100056.40;;;9.46
68911;BMP180;55953;51.650;-0.522;2023-04-24T07:39:05;100054.40;;;9.40
68911;BMP180;55953;51.650;-0.522;2023-04-24T07:41:33;100058.20;;;9.40
68911;BMP180;55953;51.650;-0.522;2023-04-24T07:44:01;100063.00;;;9.30
68911;BMP180;55953;51.650;-0.522;2023-04-24T07:46:30;100060.80;;;9.34
68911;BMP180;55953;51.650;-0.522;2023-04-24T07:48:58;100061.40;;;9.50
68911;BMP180;55953;51.650;-0.522;2023-04-24T07:51:40;100070.40;;;9.70
68911;BMP180;55953;51.650;-0.522;2023-04-24T07:54:09;100066.40;;;9.70
68911;BMP180;55953;51.650;-0.522;2023-04-24T07:56:37;100065.80;;;9.80
68911;BMP180;55953;51.650;-0.522;2023-04-24T07:59:06;100071.40;;;9.90
68911;BMP180;55953;51.650;-0.522;2023-04-24T08:01:34;100066.40;;;9.90
68911;BMP180;55953;51.650;-0.522;2023-04-24T08:04:02;100072.40;;;9.90
68911;BMP180;55953;51.650;-0.522;2023-04-24T08:06:30;100079.00;;;9.80
68911;BMP180;55953;51.650;-0.522;2023-04-24T08:09:00;100076.20;;;9.80
68911;BMP180;55953;51.650;-0.522;2023-04-24T08:11:28;100074.60;;;9.78
68911;BMP180;55953;51.650;-0.522;2023-04-24T08:13:56;100072.80;;;9.80
68911;BMP180;55953;51.650;-0.522;2023-04-24T08:16:24;100078.20;;;9.90
68911;BMP180;55953;51.650;-0.522;2023-04-24T08:18:53;100076.20;;;10.08
68911;BMP180;55953;51.650;-0.522;2023-04-24T08:21:21;100074.80;;;10.20
68911;BMP180;55953;51.650;-0.522;2023-04-24T08:23:49;100081.60;;;10.30
68911;BMP180;55953;51.650;-0.522;2023-04-24T08:26:17;100080.00;;;10.40
68911;BMP180;55953;51.650;-0.522;2023-04-24T08:28:45;100081.40;;;10.40
68911;BMP180;55953;51.650;-0.522;2023-04-24T08:31:13;100085.20;;;10.30
68911;BMP180;55953;51.650;-0.522;2023-04-24T08:33:41;100086.40;;;10.30
68911;BMP180;55953;51.650;-0.522;2023-04-24T08:36:09;100091.20;;;10.30
68911;BMP180;55953;51.650;-0.522;2023-04-24T08:38:37;100097.60;;;10.22
68911;BMP180;55953;51.650;-0.522;2023-04-24T08:41:05;100096.20;;;10.20
68911;BMP180;55953;51.650;-0.522;2023-04-24T08:43:37;100093.20;;;10.00
68911;BMP180;55953;51.650;-0.522;2023-04-24T08:46:06;100099.20;;;10.00
68911;BMP180;55953;51.650;-0.522;2023-04-24T08:48:39;100098.80;;;9.98
68911;BMP180;55953;51.650;-0.522;2023-04-24T08:51:08;100101.80;;;9.90
68911;BMP180;55953;51.650;-0.522;2023-04-24T08:53:37;100104.40;;;9.90
68911;BMP180;55953;51.650;-0.522;2023-04-24T08:56:05;100105.00;;;9.94
68911;BMP180;55953;51.650;-0.522;2023-04-24T08:58:35;100103.60;;;9.90
68911;BMP180;55953;51.650;-0.522;2023-04-24T09:01:04;100106.00;;;10.00
68911;BMP180;55953;51.650;-0.522;2023-04-24T09:03:33;100108.60;;;10.10
68911;BMP180;55953;51.650;-0.522;2023-04-24T09:06:02;100110.80;;;9.90
68911;BMP180;55953;51.650;-0.522;2023-04-24T09:08:30;100111.20;;;9.80
68911;BMP180;55953;51.650;-0.522;2023-04-24T09:10:58;100109.60;;;9.80
68911;BMP180;55953;51.650;-0.522;2023-04-24T09:13:30;100111.00;;;9.80
68911;BMP180;55953;51.650;-0.522;2023-04-24T09:15:58;100115.80;;;9.80
68911;BMP180;55953;51.650;-0.522;2023-04-24T09:18:28;100117.40;;;9.80
68911;BMP180;55953;51.650;-0.522;2023-04-24T09:21:03;100122.60;;;9.80
68911;BMP180;55953;51.650;-0.522;2023-04-24T09:23:31;100124.00;;;9.78
68911;BMP180;55953;51.650;-0.522;2023-04-24T09:26:02;100127.20;;;9.70
68911;BMP180;55953;51.650;-0.522;2023-04-24T09:28:40;100133.60;;;9.60
68911;BMP180;55953;51.650;-0.522;2023-04-24T09:31:14;100137.20;;;9.44
68911;BMP180;55953;51.650;-0.522;2023-04-24T09:34:02;100142.60;;;9.30
68911;BMP180;55953;51.650;-0.522;2023-04-24T09:36:42;100145.60;;;9.30
68911;BMP180;55953;51.650;-0.522;2023-04-24T09:39:13;100144.40;;;9.30
68911;BMP180;55953;51.650;-0.522;2023-04-24T09:41:49;100144.20;;;9.30
68911;BMP180;55953;51.650;-0.522;2023-04-24T09:44:18;100138.80;;;9.30
68911;BMP180;55953;51.650;-0.522;2023-04-24T09:46:56;100150.00;;;9.30
68911;BMP180;55953;51.650;-0.522;2023-04-24T09:49:31;100154.40;;;9.30
68911;BMP180;55953;51.650;-0.522;2023-04-24T09:52:09;100151.60;;;9.30
68911;BMP180;55953;51.650;-0.522;2023-04-24T09:54:39;100154.20;;;9.32
68911;BMP180;55953;51.650;-0.522;2023-04-24T09:57:08;100154.60;;;9.46
68911;BMP180;55953;51.650;-0.522;2023-04-24T09:59:42;100161.20;;;9.50
68911;BMP180;55953;51.650;-0.522;2023-04-24T10:02:20;100160.80;;;9.60
68911;BMP180;55953;51.650;-0.522;2023-04-24T10:04:56;100171.60;;;9.60
68911;BMP180;55953;51.650;-0.522;2023-04-24T10:07:27;100173.60;;;9.60
68911;BMP180;55953;51.650;-0.522;2023-04-24T10:09:55;100173.40;;;9.50
68911;BMP180;55953;51.650;-0.522;2023-04-24T10:12:24;100169.20;;;9.56
68911;BMP180;55953;51.650;-0.522;2023-04-24T10:14:53;100165.60;;;9.60
68911;BMP180;55953;51.650;-0.522;2023-04-24T10:17:23;100161.40;;;9.90
68911;BMP180;55953;51.650;-0.522;2023-04-24T10:19:52;100157.80;;;10.24
68911;BMP180;55953;51.650;-0.522;2023-04-24T10:22:22;100157.20;;;10.50
68911;BMP180;55953;51.650;-0.522;2023-04-24T10:24:52;100159.20;;;10.78
68911;BMP180;55953;51.650;-0.522;2023-04-24T10:27:21;100153.40;;;11.00
68911;BMP180;55953;51.650;-0.522;2023-04-24T10:29:53;100148.40;;;11.20
68911;BMP180;55953;51.650;-0.522;2023-04-24T10:32:21;100152.60;;;11.34
68911;BMP180;55953;51.650;-0.522;2023-04-24T10:34:49;100145.40;;;11.60
68911;BMP180;55953;51.650;-0.522;2023-04-24T10:37:17;100157.60;;;11.70
68911;BMP180;55953;51.650;-0.522;2023-04-24T10:39:48;100160.60;;;11.78
68911;BMP180;55953;51.650;-0.522;2023-04-24T10:42:18;100162.40;;;11.70
68911;BMP180;55953;51.650;-0.522;2023-04-24T10:44:50;100165.80;;;11.90
68911;BMP180;55953;51.650;-0.522;2023-04-24T10:47:18;100169.80;;;11.70
68911;BMP180;55953;51.650;-0.522;2023-04-24T10:49:46;100162.00;;;11.74
68911;BMP180;55953;51.650;-0.522;2023-04-24T10:52:14;100155.60;;;11.96
68911;BMP180;55953;51.650;-0.522;2023-04-24T10:54:46;100155.20;;;12.40
68911;BMP180;55953;51.650;-0.522;2023-04-24T10:59:51;100165.40;;;12.70
68911;BMP180;55953;51.650;-0.522;2023-04-24T11:02:37;100167.60;;;12.86
68911;BMP180;55953;51.650;-0.522;2023-04-24T11:05:06;100167.60;;;13.00
68911;BMP180;55953;51.650;-0.522;2023-04-24T11:08:15;100170.80;;;13.08
68911;BMP180;55953;51.650;-0.522;2023-04-24T11:11:08;100168.60;;;13.06
68911;BMP180;55953;51.650;-0.522;2023-04-24T11:16:33;100168.00;;;13.46
68911;BMP180;55953;51.650;-0.522;2023-04-24T11:21:43;100174.80;;;13.40
68911;BMP180;55953;51.650;-0.522;2023-04-24T11:24:38;100169.40;;;13.40
68911;BMP180;55953;51.650;-0.522;2023-04-24T11:27:17;100177.80;;;13.50
68911;BMP180;55953;51.650;-0.522;2023-04-24T11:32:42;100176.40;;;13.60
68911;BMP180;55953;51.650;-0.522;2023-04-24T11:35:23;100180.40;;;13.76
68911;BMP180;55953;51.650;-0.522;2023-04-24T11:37:55;100176.60;;;13.80
68911;BMP180;55953;51.650;-0.522;2023-04-24T11:40:26;100178.80;;;13.74
68911;BMP180;55953;51.650;-0.522;2023-04-24T11:42:54;100179.60;;;13.56
68911;BMP180;55953;51.650;-0.522;2023-04-24T11:45:30;100177.40;;;13.50
68911;BMP180;55953;51.650;-0.522;2023-04-24T11:47:58;100175.20;;;13.74
68911;BMP180;55953;51.650;-0.522;2023-04-24T11:50:27;100173.40;;;13.90
68911;BMP180;55953;51.650;-0.522;2023-04-24T11:52:56;100172.60;;;14.10
68911;BMP180;55953;51.650;-0.522;2023-04-24T11:55:28;100172.20;;;14.30
68911;BMP180;55953;51.650;-0.522;2023-04-24T11:57:57;100176.60;;;14.20
68911;BMP180;55953;51.650;-0.522;2023-04-24T12:00:29;100176.60;;;14.10
68911;BMP180;55953;51.650;-0.522;2023-04-24T12:03:11;100175.40;;;14.00
68911;BMP180;55953;51.650;-0.522;2023-04-24T12:05:40;100170.60;;;14.20
68911;BMP180;55953;51.650;-0.522;2023-04-24T12:08:08;100171.80;;;14.30
68911;BMP180;55953;51.650;-0.522;2023-04-24T12:10:36;100164.80;;;14.40
68911;BMP180;55953;51.650;-0.522;2023-04-24T12:13:05;100167.60;;;14.52
68911;BMP180;55953;51.650;-0.522;2023-04-24T12:15:33;100171.20;;;14.70
68911;BMP180;55953;51.650;-0.522;2023-04-24T12:18:01;100171.40;;;14.70
68911;BMP180;55953;51.650;-0.522;2023-04-24T12:20:32;100166.00;;;14.70
68911;BMP180;55953;51.650;-0.522;2023-04-24T12:23:01;100169.80;;;14.60
68911;BMP180;55953;51.650;-0.522;2023-04-24T12:25:32;100168.00;;;14.50
68911;BMP180;55953;51.650;-0.522;2023-04-24T12:30:34;100158.80;;;14.60
68911;BMP180;55953;51.650;-0.522;2023-04-24T12:33:03;100157.80;;;14.90
68911;BMP180;55953;51.650;-0.522;2023-04-24T12:35:33;100154.60;;;14.94
68911;BMP180;55953;51.650;-0.522;2023-04-24T12:38:16;100156.60;;;15.10
68911;BMP180;55953;51.650;-0.522;2023-04-24T12:40:45;100156.20;;;15.10
68911;BMP180;55953;51.650;-0.522;2023-04-24T12:43:20;100155.20;;;15.10
68911;BMP180;55953;51.650;-0.522;2023-04-24T12:45:48;100150.00;;;15.30
68911;BMP180;55953;51.650;-0.522;2023-04-24T12:48:16;100146.60;;;15.50
68911;BMP180;55953;51.650;-0.522;2023-04-24T12:50:44;100143.40;;;15.70
68911;BMP180;55953;51.650;-0.522;2023-04-24T12:53:14;100146.40;;;15.40
68911;BMP180;55953;51.650;-0.522;2023-04-24T12:55:44;100147.20;;;15.40
68911;BMP180;55953;51.650;-0.522;2023-04-24T12:58:13;100145.20;;;15.30
68911;BMP180;55953;51.650;-0.522;2023-04-24T13:00:40;100153.00;;;15.10
68911;BMP180;55953;51.650;-0.522;2023-04-24T13:03:12;100145.20;;;15.00
68911;BMP180;55953;51.650;-0.522;2023-04-24T13:05:41;100144.40;;;15.00
68911;BMP180;55953;51.650;-0.522;2023-04-24T13:08:09;100144.00;;;14.80
68911;BMP180;55953;51.650;-0.522;2023-04-24T13:10:37;100138.80;;;14.60
68911;BMP180;55953;51.650;-0.522;2023-04-24T13:13:06;100139.40;;;14.66
68911;BMP180;55953;51.650;-0.522;2023-04-24T13:15:34;100137.20;;;14.70
68911;BMP180;55953;51.650;-0.522;2023-04-24T13:18:02;100139.00;;;14.70
68911;BMP180;55953;51.650;-0.522;2023-04-24T13:20:30;100132.60;;;14.70
68911;BMP180;55953;51.650;-0.522;2023-04-24T13:22:58;100135.00;;;14.90
68911;BMP180;55953;51.650;-0.522;2023-04-24T13:25:26;100134.60;;;15.10
68911;BMP180;55953;51.650;-0.522;2023-04-24T13:27:54;100133.60;;;15.20
68911;BMP180;55953;51.650;-0.522;2023-04-24T13:30:22;100128.80;;;15.38
68911;BMP180;55953;51.650;-0.522;2023-04-24T13:32:50;100129.80;;;15.40
68911;BMP180;55953;51.650;-0.522;2023-04-24T13:35:18;100127.80;;;15.60
68911;BMP180;55953;51.650;-0.522;2023-04-24T13:37:46;100129.60;;;15.60
68911;BMP180;55953;51.650;-0.522;2023-04-24T13:40:14;100126.20;;;15.40
68911;BMP180;55953;51.650;-0.522;2023-04-24T13:42:42;100127.80;;;15.30
68911;BMP180;55953;51.650;-0.522;2023-04-24T13:45:11;100125.00;;;15.30
68911;BMP180;55953;51.650;-0.522;2023-04-24T13:47:52;100123.00;;;15.30
68911;BMP180;55953;51.650;-0.522;2023-04-24T13:50:22;100122.40;;;15.20
68911;BMP180;55953;51.650;-0.522;2023-04-24T13:52:49;100121.20;;;15.30
68911;BMP180;55953;51.650;-0.522;2023-04-24T13:55:17;100123.60;;;15.00
68911;BMP180;55953;51.650;-0.522;2023-04-24T13:57:45;100123.20;;;14.80
68911;BMP180;55953;51.650;-0.522;2023-04-24T14:00:13;100118.00;;;14.70
68911;BMP180;55953;51.650;-0.522;2023-04-24T14:02:42;100117.40;;;14.60
68911;BMP180;55953;51.650;-0.522;2023-04-24T14:05:10;100115.40;;;14.50
68911;BMP180;55953;51.650;-0.522;2023-04-24T14:07:39;100114.80;;;14.40
68911;BMP180;55953;51.650;-0.522;2023-04-24T14:10:07;100107.00;;;14.16
68911;BMP180;55953;51.650;-0.522;2023-04-24T14:12:35;100108.60;;;14.08
68911;BMP180;55953;51.650;-0.522;2023-04-24T14:15:04;100106.80;;;13.90
68911;BMP180;55953;51.650;-0.522;2023-04-24T14:17:33;100116.60;;;13.80
68911;BMP180;55953;51.650;-0.522;2023-04-24T14:20:01;100122.00;;;13.90
68911;BMP180;55953;51.650;-0.522;2023-04-24T14:22:29;100114.00;;;13.88
68911;BMP180;55953;51.650;-0.522;2023-04-24T14:24:57;100115.60;;;13.90